createdAt,value
2022-08-26T00:01:29.198Z,101461.31
2022-08-26T00:03:56.449Z,101459.22
2022-08-26T00:06:23.213Z,101455.13
2022-08-26T00:08:49.714Z,101455.13
2022-08-26T00:11:16.384Z,101456.41
2022-08-26T00:13:54.146Z,101448.53
2022-08-26T00:16:20.793Z,101456.63
2022-08-26T00:18:47.296Z,101455.00
2022-08-26T00:21:13.814Z,101455.22
2022-08-26T00:23:40.523Z,101458.59
2022-08-26T00:26:07.054Z,101452.78
2022-08-26T00:28:35.411Z,101453.81
2022-08-26T00:31:02.437Z,101448.66
2022-08-26T00:33:30.004Z,101441.28
2022-08-26T00:35:56.754Z,101441.63
2022-08-26T00:38:23.555Z,101444.78
2022-08-26T00:40:53.695Z,101436.91
2022-08-26T00:43:22.746Z,101439.84
2022-08-26T00:46:07.041Z,101444.38
2022-08-26T00:48:34.736Z,101438.78
2022-08-26T00:51:11.519Z,101441.81
2022-08-26T00:53:43.248Z,101429.38
2022-08-26T00:56:15.912Z,101442.63
2022-08-26T00:58:45.490Z,101437.56
2022-08-26T01:01:12.511Z,101440.75
2022-08-26T01:03:40.191Z,101439.56
2022-08-26T01:06:12.529Z,101440.41
2022-08-26T01:08:40.162Z,101448.94
2022-08-26T01:11:07.516Z,101444.94
2022-08-26T01:13:36.873Z,101450.00
2022-08-26T01:16:05.583Z,101449.41
2022-08-26T01:18:33.250Z,101442.13
2022-08-26T01:21:26.173Z,101448.69
2022-08-26T01:23:57.466Z,101448.34
2022-08-26T01:26:34.076Z,101447.25
2022-08-26T01:29:03.669Z,101444.69
2022-08-26T01:31:36.637Z,101449.28
2022-08-26T01:34:11.010Z,101445.97
2022-08-26T01:36:39.152Z,101445.16
2022-08-26T01:39:07.214Z,101438.13
2022-08-26T01:41:34.982Z,101441.50
2022-08-26T01:44:02.116Z,101440.00
2022-08-26T01:46:30.115Z,101444.91
2022-08-26T01:48:58.710Z,101437.22
2022-08-26T01:51:26.319Z,101435.31
2022-08-26T01:53:52.821Z,101436.25
2022-08-26T01:56:22.061Z,101435.06
2022-08-26T01:58:54.564Z,101430.03
2022-08-26T02:01:22.867Z,101437.31
2022-08-26T02:04:08.899Z,101434.47
2022-08-26T02:06:37.852Z,101429.56
2022-08-26T02:09:07.844Z,101430.84
2022-08-26T02:11:36.841Z,101423.78
2022-08-26T02:14:21.875Z,101433.28
2022-08-26T02:16:50.895Z,101423.56
2022-08-26T02:19:30.470Z,101428.97
2022-08-26T02:21:59.783Z,101427.81
2022-08-26T02:24:29.727Z,101427.00
2022-08-26T02:26:57.640Z,101423.09
2022-08-26T02:29:27.967Z,101425.78
2022-08-26T02:31:57.410Z,101428.41
2022-08-26T02:34:31.400Z,101428.97
2022-08-26T02:36:59.993Z,101425.19
2022-08-26T02:39:26.881Z,101422.16
2022-08-26T02:41:53.558Z,101413.47
2022-08-26T02:44:20.724Z,101419.09
2022-08-26T02:46:47.428Z,101426.47
2022-08-26T02:49:16.220Z,101417.47
2022-08-26T02:51:43.560Z,101413.94
2022-08-26T02:54:10.118Z,101402.47
2022-08-26T02:56:37.438Z,101408.09
2022-08-26T02:59:04.198Z,101407.28
2022-08-26T03:01:33.300Z,101413.25
2022-08-26T03:04:00.702Z,101400.34
2022-08-26T03:06:27.207Z,101408.69
2022-08-26T03:08:53.731Z,101408.31
2022-08-26T03:11:20.404Z,101401.63
2022-08-26T03:13:49.056Z,101393.19
2022-08-26T03:16:16.746Z,101395.91
2022-08-26T03:18:44.002Z,101394.97
2022-08-26T03:21:18.997Z,101400.81
2022-08-26T03:23:47.141Z,101399.09
2022-08-26T03:26:15.110Z,101403.63
2022-08-26T03:29:01.487Z,101392.84
2022-08-26T03:31:29.173Z,101392.84
2022-08-26T03:33:59.581Z,101400.47
2022-08-26T03:36:26.890Z,101389.44
2022-08-26T03:38:53.581Z,101387.94
2022-08-26T03:41:21.351Z,101381.84
2022-08-26T03:43:50.639Z,101388.50
2022-08-26T03:46:18.393Z,101384.66
2022-08-26T03:48:45.704Z,101389.72
2022-08-26T03:51:18.450Z,101384.44
2022-08-26T03:53:46.031Z,101382.09
2022-08-26T03:56:12.801Z,101378.56
2022-08-26T03:58:39.443Z,101373.56
2022-08-26T04:01:09.835Z,101373.78
2022-08-26T04:03:54.911Z,101374.50
2022-08-26T04:06:21.504Z,101379.50
2022-08-26T04:08:48.285Z,101374.50
2022-08-26T04:11:19.848Z,101378.69
2022-08-26T04:13:48.032Z,101374.28
2022-08-26T04:16:17.621Z,101379.41
2022-08-26T04:18:46.824Z,101375.53
2022-08-26T04:21:15.160Z,101381.09
2022-08-26T04:23:47.491Z,101376.03
2022-08-26T04:26:15.624Z,101378.84
2022-08-26T04:28:42.120Z,101378.50
2022-08-26T04:31:14.698Z,101376.84
2022-08-26T04:33:43.237Z,101375.53
2022-08-26T04:36:10.468Z,101374.72
2022-08-26T04:38:37.078Z,101381.66
2022-08-26T04:41:05.573Z,101380.13
2022-08-26T04:43:42.176Z,101375.00
2022-08-26T04:46:09.663Z,101379.09
2022-08-26T04:48:39.493Z,101372.19
2022-08-26T04:51:06.327Z,101373.94
2022-08-26T04:53:32.820Z,101367.25
2022-08-26T04:56:00.454Z,101379.09
2022-08-26T04:58:27.521Z,101376.06
2022-08-26T05:01:00.806Z,101379.47
2022-08-26T05:03:30.434Z,101378.41
2022-08-26T05:05:58.244Z,101372.78
2022-08-26T05:08:24.971Z,101378.78
2022-08-26T05:10:56.775Z,101375.13
2022-08-26T05:13:26.144Z,101370.41
2022-08-26T05:15:53.266Z,101379.56
2022-08-26T05:18:22.832Z,101380.97
2022-08-26T05:20:51.820Z,101377.09
2022-08-26T05:23:22.603Z,101376.84
2022-08-26T05:25:50.706Z,101377.53
2022-08-26T05:28:18.840Z,101377.78
2022-08-26T05:30:49.147Z,101377.75
2022-08-26T05:33:16.717Z,101384.81
2022-08-26T05:35:44.320Z,101382.09
2022-08-26T05:38:17.561Z,101385.91
2022-08-26T05:40:52.916Z,101378.88
2022-08-26T05:43:21.265Z,101380.28
2022-08-26T05:45:49.338Z,101379.25
2022-08-26T05:48:18.579Z,101382.47
2022-08-26T05:50:50.642Z,101387.22
2022-08-26T05:53:19.133Z,101389.22
2022-08-26T05:55:52.401Z,101382.59
2022-08-26T05:58:20.885Z,101390.78
2022-08-26T06:01:00.725Z,101393.34
2022-08-26T06:03:27.615Z,101384.47
2022-08-26T06:05:54.186Z,101393.34
2022-08-26T06:08:21.300Z,101383.19
2022-08-26T06:10:53.675Z,101392.97
2022-08-26T06:13:26.783Z,101385.09
2022-08-26T06:15:54.469Z,101392.28
2022-08-26T06:18:27.239Z,101389.50
2022-08-26T06:20:57.704Z,101382.22
2022-08-26T06:23:45.625Z,101388.44
2022-08-26T06:26:12.903Z,101382.63
2022-08-26T06:28:39.452Z,101393.13
2022-08-26T06:31:06.283Z,101389.75
2022-08-26T06:33:32.969Z,101378.22
2022-08-26T06:36:01.318Z,101381.03
2022-08-26T06:38:28.383Z,101387.94
2022-08-26T06:40:55.268Z,101389.56
2022-08-26T06:43:24.347Z,101390.16
2022-08-26T06:45:51.160Z,101397.00
2022-08-26T06:48:19.692Z,101390.13
2022-08-26T06:50:46.619Z,101383.00
2022-08-26T06:53:17.048Z,101388.00
2022-08-26T06:55:46.095Z,101399.00
2022-08-26T06:58:13.797Z,101396.69
2022-08-26T07:00:47.270Z,101393.06
2022-08-26T07:03:14.299Z,101395.16
2022-08-26T07:05:40.852Z,101388.50
2022-08-26T07:08:07.517Z,101396.22
2022-08-26T07:10:35.604Z,101388.69
2022-08-26T07:13:02.660Z,101391.91
2022-08-26T07:15:31.202Z,101394.47
2022-08-26T07:17:58.164Z,101397.03
2022-08-26T07:20:25.417Z,101405.91
2022-08-26T07:22:51.980Z,101408.94
2022-08-26T07:25:19.253Z,101409.94
2022-08-26T07:27:46.791Z,101418.78
2022-08-26T07:30:20.651Z,101420.03
2022-08-26T07:32:47.435Z,101426.09
2022-08-26T07:35:14.742Z,101419.81
2022-08-26T07:37:42.288Z,101419.81
2022-08-26T07:40:09.439Z,101419.81
2022-08-26T07:42:35.995Z,101419.81
2022-08-26T07:45:02.547Z,101419.81
2022-08-26T07:47:29.233Z,101419.81
2022-08-26T07:49:56.359Z,101419.81
2022-08-26T07:52:26.683Z,64423.41
2022-08-26T07:54:53.888Z,64423.41
2022-08-26T07:57:20.739Z,64423.41
2022-08-26T07:59:47.489Z,64423.41
2022-08-26T08:02:14.019Z,64423.41
2022-08-26T08:04:40.549Z,64423.41
2022-08-26T08:07:07.552Z,64423.41
2022-08-26T08:09:38.260Z,64423.41
2022-08-26T08:12:07.512Z,64423.41
2022-08-26T08:14:36.441Z,64423.41
2022-08-26T08:17:04.343Z,64423.41
2022-08-26T08:19:36.717Z,64423.41
2022-08-26T08:22:11.351Z,64423.41
2022-08-26T08:24:44.582Z,64423.41
2022-08-26T08:27:11.094Z,64423.41
2022-08-26T08:29:38.573Z,64423.41
2022-08-26T08:32:05.412Z,64423.41
2022-08-26T08:34:32.371Z,64423.41
2022-08-26T08:36:59.514Z,64423.41
2022-08-26T08:39:26.720Z,64423.41
2022-08-26T08:42:00.740Z,64423.41
2022-08-26T08:44:29.040Z,64423.41
2022-08-26T08:46:59.297Z,64423.41
2022-08-26T08:49:26.157Z,64423.41
2022-08-26T08:52:16.539Z,64423.41
2022-08-26T08:54:43.148Z,64423.41
2022-08-26T08:57:16.732Z,64423.41
2022-08-26T09:00:01.584Z,64423.41
2022-08-26T09:02:34.669Z,64423.41
2022-08-26T09:05:29.884Z,64423.41
2022-08-26T09:08:01.679Z,64423.41
2022-08-26T09:10:35.624Z,64423.41
2022-08-26T09:13:09.677Z,64423.41
2022-08-26T09:15:56.985Z,64423.41
2022-08-26T09:18:54.417Z,64423.41
2022-08-26T09:21:23.569Z,64423.41
2022-08-26T09:23:53.171Z,64423.41
2022-08-26T09:26:25.930Z,64423.41
2022-08-26T09:29:01.263Z,64423.41
2022-08-26T09:31:30.864Z,64423.41
2022-08-26T09:34:07.251Z,64423.41
2022-08-26T09:36:41.058Z,64423.41
2022-08-26T09:39:37.732Z,64423.41
2022-08-26T09:42:10.814Z,64423.41
2022-08-26T09:44:54.818Z,64423.41
2022-08-26T09:47:26.761Z,64423.41
2022-08-26T09:50:12.471Z,64423.41
2022-08-26T09:52:40.376Z,64423.41
2022-08-26T09:55:12.426Z,64423.41
2022-08-26T09:57:48.918Z,64423.41
2022-08-26T10:00:27.991Z,64423.41
2022-08-26T10:02:57.956Z,64423.41
2022-08-26T10:05:43.919Z,64423.41
2022-08-26T10:08:26.412Z,64423.41
2022-08-26T10:10:53.650Z,64423.41
2022-08-26T10:13:42.226Z,64423.41
2022-08-26T10:16:22.368Z,64423.41
2022-08-26T10:19:00.042Z,64423.41
2022-08-26T10:21:42.691Z,64423.41
2022-08-26T10:24:11.526Z,64423.41
2022-08-26T10:26:58.227Z,64423.41
2022-08-26T10:29:34.154Z,64423.41
2022-08-26T10:32:04.786Z,64423.41
2022-08-26T10:34:32.563Z,64423.41
2022-08-26T10:37:16.434Z,64423.41
2022-08-26T10:40:03.698Z,64423.41
2022-08-26T10:42:30.909Z,64423.41
2022-08-26T10:45:04.840Z,64423.41
2022-08-26T10:47:41.930Z,64423.41
2022-08-26T10:50:08.444Z,64423.41
2022-08-26T10:53:02.477Z,64423.41
2022-08-26T10:55:57.233Z,64423.41
2022-08-26T10:58:45.643Z,64423.41
2022-08-26T11:01:50.872Z,101399.00
2022-08-26T11:04:37.445Z,101397.69
2022-08-26T11:07:32.320Z,101397.69
2022-08-26T11:10:01.044Z,101409.41
2022-08-26T11:12:37.331Z,101408.84
2022-08-26T11:15:10.729Z,101399.13
2022-08-26T11:17:48.851Z,101405.84
2022-08-26T11:20:42.341Z,101403.31
2022-08-26T11:23:24.010Z,101401.84
2022-08-26T11:25:57.032Z,101397.28
2022-08-26T11:28:46.082Z,101384.75
2022-08-26T11:31:25.614Z,101385.03
2022-08-26T11:34:07.149Z,101381.09
2022-08-26T11:36:47.646Z,101371.53
2022-08-26T11:39:36.733Z,101377.22
2022-08-26T11:42:20.251Z,101369.69
2022-08-26T11:44:49.248Z,101372.06
2022-08-26T11:47:17.898Z,101382.94
2022-08-26T11:49:45.595Z,101381.16
2022-08-26T11:52:17.421Z,101376.84
2022-08-26T11:55:20.156Z,101368.16
2022-08-26T11:57:53.452Z,101352.94
2022-08-26T12:00:26.485Z,101342.72
2022-08-26T12:02:53.472Z,101341.31
2022-08-26T12:05:31.125Z,101339.16
2022-08-26T12:08:01.331Z,101341.31
2022-08-26T12:10:31.148Z,101355.31
2022-08-26T12:13:00.467Z,101358.06
2022-08-26T12:15:29.604Z,101350.50
2022-08-26T12:17:56.898Z,101350.50
2022-08-26T12:20:48.085Z,101350.50
2022-08-26T12:23:48.029Z,101340.44
2022-08-26T12:26:25.496Z,101340.44
2022-08-26T12:28:53.842Z,76573.47
2022-08-26T12:33:48.611Z,118568.22
2022-08-26T12:36:21.191Z,64423.41
2022-08-26T12:41:39.399Z,64423.41
2022-08-26T12:44:06.111Z,64423.41
2022-08-26T12:46:32.658Z,101340.44
2022-08-26T12:49:01.667Z,101309.00
2022-08-26T12:51:31.075Z,101299.88
2022-08-26T12:53:58.296Z,101293.81
2022-08-26T12:56:51.977Z,101291.94
2022-08-26T12:59:25.659Z,101291.34
2022-08-26T13:01:53.442Z,101291.56
2022-08-26T13:04:41.820Z,101284.88
2022-08-26T13:07:23.046Z,101290.63
2022-08-26T13:09:52.218Z,101290.63
2022-08-26T13:12:29.374Z,101305.06
2022-08-26T13:14:57.520Z,101317.59
2022-08-26T13:17:24.388Z,101312.16
2022-08-26T13:19:50.934Z,101309.94
2022-08-26T13:22:22.863Z,101302.06
2022-08-26T13:24:49.606Z,77942.22
2022-08-26T13:29:44.631Z,101184.22
2022-08-26T13:32:12.422Z,101302.06
2022-08-26T13:34:39.485Z,101314.09
2022-08-26T13:37:06.366Z,101305.44
2022-08-26T13:39:33.129Z,101305.44
2022-08-26T13:42:00.315Z,101308.19
2022-08-26T13:44:27.368Z,101312.97
2022-08-26T13:46:53.990Z,101318.53
2022-08-26T13:49:20.530Z,101312.06
2022-08-26T13:51:47.096Z,101312.06
2022-08-26T13:54:13.667Z,101312.06
2022-08-26T13:56:40.343Z,101312.06
2022-08-26T13:59:10.232Z,101322.88
2022-08-26T14:01:39.638Z,101326.84
2022-08-26T14:04:06.298Z,101326.84
2022-08-26T14:06:32.848Z,101324.69
2022-08-26T14:09:00.309Z,101317.38
2022-08-26T14:11:27.690Z,101327.44
2022-08-26T14:13:54.218Z,101332.56
2022-08-26T14:16:26.624Z,101328.31
2022-08-26T14:18:53.454Z,101340.72
2022-08-26T14:21:20.533Z,101349.69
2022-08-26T14:23:47.123Z,101360.56
2022-08-26T14:26:19.081Z,101360.56
2022-08-26T14:28:57.941Z,101351.28
2022-08-26T14:31:26.721Z,101343.94
2022-08-26T14:33:53.435Z,101341.53
2022-08-26T14:36:28.931Z,101360.25
2022-08-26T14:38:56.542Z,101369.72
2022-08-26T14:41:25.216Z,101375.88
2022-08-26T14:43:58.005Z,101378.00
2022-08-26T14:46:28.819Z,101373.06
2022-08-26T14:49:01.560Z,101368.97
2022-08-26T14:51:28.808Z,101363.00
2022-08-26T14:54:13.463Z,101371.19
2022-08-26T14:56:53.930Z,101369.56
2022-08-26T14:59:22.779Z,101375.31
2022-08-26T15:01:49.485Z,101376.66
2022-08-26T15:04:16.508Z,101368.75
2022-08-26T15:06:43.154Z,101374.78
2022-08-26T15:09:10.064Z,101379.88
2022-08-26T15:11:36.674Z,101385.44
2022-08-26T15:14:03.231Z,101361.78
2022-08-26T15:16:29.991Z,101344.50
2022-08-26T15:18:56.781Z,101347.28
2022-08-26T15:21:24.122Z,101340.53
2022-08-26T15:23:52.095Z,101335.41
2022-08-26T15:26:19.847Z,101320.28
2022-08-26T15:28:46.543Z,101311.47
2022-08-26T15:31:13.192Z,101303.13
2022-08-26T15:33:40.316Z,101306.69
2022-08-26T15:36:08.044Z,101314.34
2022-08-26T15:38:37.469Z,101321.91
2022-08-26T15:41:05.294Z,101319.22
2022-08-26T15:43:32.053Z,101310.50
2022-08-26T15:45:58.574Z,101322.72
2022-08-26T15:48:25.427Z,101325.06
2022-08-26T15:50:57.233Z,101339.63
2022-08-26T15:53:24.206Z,101336.28
2022-08-26T15:55:54.160Z,101341.72
2022-08-26T15:58:21.742Z,101342.59
2022-08-26T16:00:48.237Z,101340.63
2022-08-26T16:03:14.743Z,101341.72
2022-08-26T16:05:43.612Z,101344.34
2022-08-26T16:08:10.846Z,101335.78
2022-08-26T16:10:39.555Z,101327.44
2022-08-26T16:13:06.220Z,101329.41
2022-08-26T16:15:33.689Z,101334.56
2022-08-26T16:18:01.882Z,101322.16
2022-08-26T16:20:29.186Z,101322.69
2022-08-26T16:22:56.240Z,101323.91
2022-08-26T16:25:22.844Z,101329.19
2022-08-26T16:27:49.504Z,101321.63
2022-08-26T16:30:16.779Z,101327.91
2022-08-26T16:32:43.315Z,101317.56
2022-08-26T16:35:11.653Z,101334.38
2022-08-26T16:37:39.410Z,101323.56
2022-08-26T16:40:07.366Z,101330.09
2022-08-26T16:42:34.087Z,101331.16
2022-08-26T16:45:00.616Z,101330.88
2022-08-26T16:47:27.292Z,101331.72
2022-08-26T16:49:53.790Z,101330.91
2022-08-26T16:52:20.368Z,101327.09
2022-08-26T16:54:47.424Z,101325.97
2022-08-26T16:57:14.082Z,101326.75
2022-08-26T16:59:41.456Z,101330.75
2022-08-26T17:02:08.261Z,101327.19
2022-08-26T17:04:34.768Z,101332.06
2022-08-26T17:07:01.258Z,101339.03
2022-08-26T17:09:27.832Z,101337.34
2022-08-26T17:11:54.499Z,101339.19
2022-08-26T17:14:21.035Z,101341.63
2022-08-26T17:16:51.104Z,101337.72
2022-08-26T17:19:19.188Z,101336.66
2022-08-26T17:21:46.891Z,101339.25
2022-08-26T17:24:14.005Z,101347.34
2022-08-26T17:26:44.142Z,101341.06
2022-08-26T17:29:14.767Z,101343.16
2022-08-26T17:31:41.385Z,101344.75
2022-08-26T17:34:10.108Z,101332.50
2022-08-26T17:36:36.653Z,101342.25
2022-08-26T17:39:03.599Z,101339.97
2022-08-26T17:41:30.433Z,101339.66
2022-08-26T17:43:57.112Z,101330.41
2022-08-26T17:46:24.595Z,101327.69
2022-08-26T17:48:51.291Z,101326.75
2022-08-26T17:51:19.232Z,101322.09
2022-08-26T17:53:46.635Z,101324.81
2022-08-26T17:56:14.734Z,101323.66
2022-08-26T17:58:51.470Z,101317.34
2022-08-26T18:01:18.706Z,101331.91
2022-08-26T18:03:48.226Z,101320.44
2022-08-26T18:06:15.038Z,101332.22
2022-08-26T18:08:41.529Z,101333.06
2022-08-26T18:11:18.250Z,101330.38
2022-08-26T18:13:47.147Z,101326.63
2022-08-26T18:16:15.210Z,101318.25
2022-08-26T18:18:42.200Z,101323.56
2022-08-26T18:21:17.051Z,101335.50
2022-08-26T18:23:45.075Z,101329.78
2022-08-26T18:26:31.323Z,101344.38
2022-08-26T18:28:58.560Z,101347.88
2022-08-26T18:31:25.233Z,101360.31
2022-08-26T18:33:52.411Z,101356.22
2022-08-26T18:36:24.392Z,101362.91
2022-08-26T18:38:51.619Z,101356.56
2022-08-26T18:41:20.895Z,101355.19
2022-08-26T18:43:50.264Z,101366.19
2022-08-26T18:46:17.749Z,101362.41
2022-08-26T18:48:44.474Z,101366.44
2022-08-26T18:51:19.153Z,101367.44
2022-08-26T18:53:45.691Z,101363.34
2022-08-26T18:56:16.624Z,101371.38
2022-08-26T18:58:45.469Z,101369.66
2022-08-26T19:01:13.082Z,101368.03
2022-08-26T19:03:39.788Z,101375.50
2022-08-26T19:06:06.580Z,101383.84
2022-08-26T19:08:33.066Z,101374.84
2022-08-26T19:11:00.920Z,101384.84
2022-08-26T19:13:27.407Z,101372.28
2022-08-26T19:15:54.064Z,101378.16
2022-08-26T19:18:20.609Z,101374.63
2022-08-26T19:20:47.880Z,101374.38
2022-08-26T19:23:30.775Z,101388.72
2022-08-26T19:25:57.865Z,101385.81
2022-08-26T19:28:24.697Z,101378.28
2022-08-26T19:30:53.556Z,101378.97
2022-08-26T19:33:20.178Z,101377.25
2022-08-26T19:35:46.842Z,101369.13
2022-08-26T19:38:13.828Z,101375.84
2022-08-26T19:40:40.331Z,101380.38
2022-08-26T19:43:07.075Z,101379.78
2022-08-26T19:45:34.399Z,101385.91
2022-08-26T19:48:01.027Z,101381.66
2022-08-26T19:50:30.616Z,101388.84
2022-08-26T19:52:57.275Z,101385.59
2022-08-26T19:55:24.389Z,101387.16
2022-08-26T19:57:52.248Z,101388.31
2022-08-26T20:00:23.723Z,101385.91
2022-08-26T20:02:51.005Z,101383.78
2022-08-26T20:05:20.634Z,101383.09
2022-08-26T20:07:47.642Z,101386.38
2022-08-26T20:10:15.681Z,101372.22
2022-08-26T20:12:42.868Z,101378.28
2022-08-26T20:15:11.327Z,101378.56
2022-08-26T20:17:38.216Z,101374.25
2022-08-26T20:20:29.713Z,101376.13
2022-08-26T20:23:00.490Z,101384.22
2022-08-26T20:25:27.005Z,101384.97
2022-08-26T20:27:53.494Z,101379.97
2022-08-26T20:30:20.054Z,101376.59
2022-08-26T20:32:46.603Z,101378.97
2022-08-26T20:35:13.714Z,101369.22
2022-08-26T20:37:41.157Z,101370.88
2022-08-26T20:40:09.427Z,101363.72
2022-08-26T20:42:36.267Z,101373.84
2022-08-26T20:45:03.201Z,101379.25
2022-08-26T20:47:29.835Z,101382.88
2022-08-26T20:49:56.456Z,101382.97
2022-08-26T20:52:23.099Z,101381.41
2022-08-26T20:54:49.617Z,101382.16
2022-08-26T20:57:16.123Z,101380.50
2022-08-26T20:59:43.462Z,101383.56
2022-08-26T21:02:10.049Z,101381.09
2022-08-26T21:04:36.583Z,101381.56
2022-08-26T21:07:03.196Z,101380.72
2022-08-26T21:09:29.765Z,101379.25
2022-08-26T21:11:57.247Z,101389.81
2022-08-26T21:14:25.905Z,101385.13
2022-08-26T21:16:52.821Z,101385.63
2022-08-26T21:19:19.642Z,101396.88
2022-08-26T21:21:47.613Z,101392.06
2022-08-26T21:24:14.255Z,101395.13
2022-08-26T21:26:40.880Z,101394.03
2022-08-26T21:29:09.546Z,101388.06
2022-08-26T21:31:36.657Z,101399.94
2022-08-26T21:34:03.302Z,101399.34
2022-08-26T21:36:29.812Z,101397.47
2022-08-26T21:38:57.150Z,101401.97
2022-08-26T21:41:23.760Z,101394.56
2022-08-26T21:43:53.564Z,101396.94
2022-08-26T21:46:22.104Z,101398.56
2022-08-26T21:48:51.943Z,101397.41
2022-08-26T21:51:20.790Z,101399.28
2022-08-26T21:53:47.459Z,101393.88
2022-08-26T21:56:18.044Z,101396.59
2022-08-26T21:58:45.128Z,101394.00
2022-08-26T22:01:14.325Z,101405.97
2022-08-26T22:03:47.402Z,101398.09
2022-08-26T22:06:15.001Z,101406.34
2022-08-26T22:08:41.486Z,101396.59
2022-08-26T22:11:09.445Z,101403.03
2022-08-26T22:13:37.601Z,101404.69
2022-08-26T22:16:04.914Z,101407.16
2022-08-26T22:18:31.707Z,101406.91
2022-08-26T22:21:01.305Z,101399.88
2022-08-26T22:23:28.217Z,101404.19
2022-08-26T22:25:55.787Z,101406.34
2022-08-26T22:28:22.930Z,101413.25
2022-08-26T22:30:49.542Z,101406.94
2022-08-26T22:33:17.315Z,101407.38
2022-08-26T22:35:48.247Z,101408.19
2022-08-26T22:38:15.015Z,101413.59
2022-08-26T22:40:50.462Z,101415.47
2022-08-26T22:43:18.100Z,101416.78
2022-08-26T22:45:46.298Z,101412.19
2022-08-26T22:48:15.523Z,101410.94
2022-08-26T22:50:43.779Z,101414.66
2022-08-26T22:53:10.547Z,101411.16
2022-08-26T22:55:37.065Z,101407.28
2022-08-26T22:58:03.782Z,101404.09
2022-08-26T23:00:32.306Z,101405.38
2022-08-26T23:02:59.943Z,101397.44
2022-08-26T23:05:26.727Z,101400.59
2022-08-26T23:07:53.947Z,101397.53
2022-08-26T23:10:20.492Z,101401.28
2022-08-26T23:12:46.995Z,101402.56
2022-08-26T23:15:13.586Z,101401.75
2022-08-26T23:17:40.181Z,101397.31
2022-08-26T23:20:09.737Z,101402.78
2022-08-26T23:22:37.035Z,101399.97
2022-08-26T23:25:07.781Z,101397.97
2022-08-26T23:27:40.379Z,101399.69
2022-08-26T23:30:10.980Z,101395.84
2022-08-26T23:32:37.512Z,101411.66
2022-08-26T23:35:05.633Z,101399.59
2022-08-26T23:37:35.922Z,101399.25
2022-08-26T23:40:05.029Z,101396.06
2022-08-26T23:42:31.603Z,101395.00
2022-08-26T23:44:58.111Z,101393.84
2022-08-26T23:47:25.094Z,101397.59
2022-08-26T23:49:51.601Z,101399.34
2022-08-26T23:52:36.631Z,101393.13
2022-08-26T23:55:03.469Z,101390.53
2022-08-26T23:57:29.963Z,101386.66
2022-08-26T23:59:56.483Z,101397.66
